Hovedside
METAR-TAF:

METAR-TAF

Lufthavner :

Teheran, Iran

breddegrad: 35-41N, lengdegrad: 051-21E, høyde over havet: 1204 m

Gjeldene værobservasjon

Denne rapporten ble laget for 17 minutter siden, klokken 09:30 UTC
Vind 10 kt fra Sør
Temperatur 31°C
Luftfuktighet 13%
Trykk 1016 hPa
Sikt 10 km eller mer
Få skyer i en høyde av 4000 ft

METAR: OIII 200930Z 17010KT 9999 FEW040 31/M01 Q1015 A3000

Tid: 14:17 (09:47 UTC)

Varsel

Denne rapporten ble laget for 4 timer og 17 minutter siden, klokken 05:30 UTC
Varsel gyldig fra 20. klokken 06 UTC til 21. klokken 12 UTC
Vind 8 kt fra Vest-nordvest
Sikt: 8000 m
Få skyer i en høyde av 4000 ft
Midlertidig
fra 20. klokken 08 UTC til 20. klokken 15 UTC
Vind 14 kt fra Sørøst
Midlertidig
fra 21. klokken 09 UTC til 21. klokken 12 UTC
Vind 14 kt fra Sørøst

TAF: OIII 200530Z 2006/2112 30008KT 8000 FEW040 TEMPO 2008/2015 14014KT TEMPO 2109/2112 14014KT

Værobservasjoner og værvarsel for over 4000 flyplasser (METAR- og TAF-rapporter).

Tilgjengelige stasjoner er representert av de røde og gule prikkene på kartet.

Hold musepekeren over prikken for å se navnet på stasjonen.

Klikk så for å se værobservasjoner og -varsler.

For å forandre kartet kan du klikke på den grønne knappen med svart kryss for å zoome inn, på den grønne knappen med strek for å zoome ut, eller på de grønne pilene for å se tilstøtende kart.


METAR-TAF: